Flight Track Log - Related Links

Times and Time Zones

All times are in EDT time to prevent confusion due to time zone crossing. See the KFS44 flight status page for this flight to view local times or setup timezone preferences in your user account.

Time Position Orientation Groundspeed Altitude Reporting Facility
EDT Latitude Longitude Course Direction KTS MPH feet Rate Location/Type
Thu 10:23:33 PM 43.1167 -79.9500 252° West 200 230 2,900  Level Toronto Center
Thu 10:24:33 PM 43.1000 -80.0500 257° West 270 311 5,500 2,850 Climbing Toronto Center
Thu 10:25:33 PM 43.0833 -80.1333 255° West 270 311 8,600 2,700 Climbing Toronto Center
Thu 10:26:33 PM 43.0667 -80.2500 259° West 280 322 10,900 2,600 Climbing Toronto Center
Thu 10:27:33 PM 43.0500 -80.3667 259° West 310 357 13,800 2,200 Climbing Toronto Center
Thu 10:28:00 PM 43.1558 -80.0066 252° West  Level Estimated
Thu 10:28:33 PM 43.0333 -80.5000 260° West 310 357 15,300  Level Toronto Center
Thu 10:29:33 PM 43.0167 -80.6167 259° West 350 403 15,900 300 Climbing Toronto Center
Thu 10:30:33 PM 43.0000 -80.7667 261° West 390 449 15,900  Level Toronto Center
Thu 10:31:33 PM 42.9667 -80.9167 253° West 410 472 15,900  Level Toronto Center
Thu 10:32:33 PM 42.9500 -81.0667 261° West 390 449 15,900 50 Level Toronto Center
Thu 10:33:33 PM 42.9500 -81.2000 270° West 380 437 16,000 50 Climbing Toronto Center
Thu 10:34:33 PM 42.9333 -81.3333 260° West 380 437 16,000  Level Toronto Center
Thu 10:35:33 PM 42.9000 -81.5000 255° West 390 449 16,000 -100 Level Toronto Center
Thu 10:36:33 PM 42.8667 -81.6333 251° West 390 449 15,800 -385 Descending Toronto Center
Thu 10:37:22 PM 42.8628 -81.7417 267° West 376 433 15,300 -1,211 Descending Cleveland Center
Thu 10:38:22 PM 42.8444 -81.8942 261° West 371 427 13,600 -1,650 Descending Cleveland Center
Thu 10:39:22 PM 42.8158 -82.0294 254° West 376 433 12,000 -1,250 Descending Cleveland Center
Thu 10:40:22 PM 42.7911 -82.1647 256° West 376 433 11,100 -950 Descending Cleveland Center
Thu 10:41:22 PM 42.7642 -82.2969 255° West 376 433 10,100 -600 Descending Cleveland Center
Thu 10:42:22 PM 42.7436 -82.4094 256° West 350 403 9,900 -1,550 Descending Cleveland Center
Thu 10:43:22 PM 42.7253 -82.5108 256° West 305 351 7,000 -2,494 Descending Cleveland Center
Thu 10:43:51 PM 42.7122 -82.5556 248° West 270 311 6,200 -1,700 Descending Cleveland Center
Thu 10:44:22 PM 42.6783 -82.5828 211° Southwest 256 295 5,300 -791 Descending Cleveland Center
Thu 10:45:22 PM 42.6475 -82.6692 244° Southwest 261 300 5,000 -200 Descending Cleveland Center
Thu 10:46:22 PM 42.6292 -82.7675 256° West 261 300 4,900 -52 Descending Cleveland Center
Thu 10:47:18 PM 42.6108 -82.8569 254° West 268 308 4,900  Level Cleveland Center
Thu 10:48:22 PM 42.5897 -82.9633 255° West 266 306 4,900 -194 Level Cleveland Center
Thu 10:49:22 PM 42.5692 -83.0586 254° West 266 306 4,500 -484 Descending Cleveland Center
Thu 10:50:26 PM 42.5564 -83.1567 260° West 250 288 3,900 -646 Descending Cleveland Center
Thu 10:51:32 PM 42.5231 -83.2483 244° Southwest 247 284 3,100 -496 Descending Cleveland Center
Thu 10:52:27 PM 42.4800 -83.3056 224° Southwest 244 281 2,900 -52 Descending Cleveland Center
Thu 10:53:27 PM 42.4306 -83.3711 224° Southwest 245 282 3,000 99 Climbing Cleveland Center
Thu 10:54:28 PM 42.3853 -83.4281 223° Southwest 211 243 3,100 49 Climbing Cleveland Center
Thu 10:55:29 PM 42.3406 -83.4711 215° Southwest 184 212 3,100 -347 Level Cleveland Center
Thu 10:56:29 PM 42.2861 -83.4769 185° South 188 216 2,400 -991 Descending Cleveland Center
Thu 10:57:24 PM 42.2561 -83.5092 218° Southwest 139 160 1,200 -1,309 Descending Cleveland Center
Thu 10:59:00 PM 42.2333 -83.5167 217° Southwest  Level FlightAware Approximate

Login

Don't have an account? Register now (free) for customized features, flight alerts, and more!